Terminal Aerodrome Forecast
Issued by NWS Sterling, VA

Current Version | Previous Version | Text Only | Print | Product List | Glossary Off
Versions: 1 2 3 4 5 6 7 8 9 10 11 12 13 14 15 16 17 18 19 20 21 22 23 24 25 26 27 28 29 30 31

319
FTUS41 KLWX 152102 AAA
TAFIAD
TAF AMD
KIAD 152102Z 1521/1624 VRB03KT P6SM VCSH SCT020 BKN070
     FM152300 VRB03KT P6SM BKN050
     FM160800 VRB03KT 3SM BR BKN015
     FM161200 34005KT P6SM SCT150=

USA.gov is the U.S. government's official web portal to all federal, state and local government web resources and services.